Time;durP1;ratioP1;P1;durP2;ratioP2;P2;SDS_P1;SDS_P2;PMS_P1;PMS_P2;Temp;Humidity;BMP_temperature;BMP_pressure;BME280_temperature;BME280_humidity;BME280_pressure;Samples;Min_cycle;Max_cycle;Signal;HPM_P1;HPM_P2
2021/08/03 00:02:07;;;;;;;23.52;10.10;;;;;;;27.90;31.84;99587.47;5088032;28;20773;-23
2021/08/03 00:04:41;;;;;;;22.23;10.82;;;;;;;27.59;32.62;99589.66;5087956;28;20054;-23
2021/08/03 00:07:09;;;;;;;22.70;10.45;;;;;;;27.41;32.83;99593.78;5069786;28;20036;-23
2021/08/03 00:09:34;;;;;;;24.00;10.90;;;;;;;27.37;32.90;99603.81;5087911;28;20028;-23
2021/08/03 00:12:00;;;;;;;22.83;10.48;;;;;;;27.29;32.70;99588.31;5069870;28;20821;-23
2021/08/03 00:14:25;;;;;;;18.08;9.52;;;;;;;27.24;32.82;99600.31;5087513;28;20030;-23
2021/08/03 00:16:51;;;;;;;22.63;10.52;;;;;;;27.25;32.67;99599.16;5069958;28;20043;-23
2021/08/03 00:19:16;;;;;;;26.00;10.13;;;;;;;27.48;32.13;99607.69;5069598;28;20755;-23
2021/08/03 00:21:42;;;;;;;21.98;9.85;;;;;;;27.72;31.69;99608.81;5086742;28;20039;-24
2021/08/03 00:24:07;;;;;;;17.63;10.02;;;;;;;27.98;31.76;99611.97;5087526;28;20028;-24
2021/08/03 00:26:33;;;;;;;26.38;10.45;;;;;;;27.83;32.11;99601.72;5087319;28;20461;-23
2021/08/03 00:28:58;;;;;;;21.08;10.23;;;;;;;27.95;31.32;99598.16;5087112;28;20113;-23
2021/08/03 00:31:24;;;;;;;26.80;10.63;;;;;;;27.99;31.50;99604.53;5069244;28;20136;-23
2021/08/03 00:33:54;;;;;;;24.92;10.27;;;;;;;27.90;31.48;99604.69;5087559;28;20135;-23
2021/08/03 00:36:20;;;;;;;33.42;10.25;;;;;;;27.39;32.54;99596.84;5087179;28;20381;-23
2021/08/03 00:38:45;;;;;;;24.08;10.57;;;;;;;27.59;32.91;99613.50;5087405;28;20028;-23
2021/08/03 00:41:14;;;;;;;24.52;9.80;;;;;;;27.31;32.96;99605.19;5086969;28;20384;-24
2021/08/03 00:43:40;;;;;;;24.58;9.35;;;;;;;26.71;34.92;99616.50;5052533;28;20039;-24
2021/08/03 00:46:05;;;;;;;25.58;9.73;;;;;;;26.59;34.85;99598.13;5087256;28;20384;-24
2021/08/03 00:48:31;;;;;;;23.58;10.32;;;;;;;26.64;34.34;99613.50;5087206;28;20059;-24
2021/08/03 00:50:56;;;;;;;25.73;10.25;;;;;;;27.09;33.60;99629.09;5087289;28;20047;-23
2021/08/03 00:53:22;;;;;;;25.38;10.52;;;;;;;27.30;33.31;99631.78;5087275;28;20032;-24
2021/08/03 00:55:48;;;;;;;26.50;10.45;;;;;;;26.53;34.42;99615.84;5086972;28;20023;-23
2021/08/03 00:58:13;;;;;;;25.92;9.38;;;;;;;26.69;34.21;99624.25;5087265;28;20415;-24
2021/08/03 01:00:39;;;;;;;23.85;10.00;;;;;;;26.21;34.70;99615.47;5087353;28;20024;-23
2021/08/03 01:03:05;;;;;;;25.58;9.90;;;;;;;26.00;35.79;99620.97;5086806;28;20032;-24
2021/08/03 01:05:34;;;;;;;20.88;9.15;;;;;;;25.97;35.28;99624.38;5087276;28;20024;-24
2021/08/03 01:08:18;;;;;;;29.67;9.90;;;;;;;26.09;35.24;99617.34;5069455;28;20545;-24
2021/08/03 01:10:50;;;;;;;27.10;9.82;;;;;;;26.08;35.23;99632.16;5052786;28;20028;-23
2021/08/03 01:13:55;;;;;;;20.60;8.30;;;;;;;25.88;35.48;99639.97;5069173;28;20407;-23
2021/08/03 01:16:20;;;;;;;19.23;8.65;;;;;;;25.67;36.54;99635.28;5004718;28;20033;-24
2021/08/03 01:19:08;;;;;;;21.17;9.73;;;;;;;25.74;35.86;99628.50;5072214;28;20787;-23
2021/08/03 01:21:49;;;;;;;;;;;;;;;25.49;36.87;99631.06;5069235;28;20034;-23
2021/08/03 01:24:39;;;;;;;22.15;9.95;;;;;;;25.32;37.59;99639.34;5086737;28;19955;-23
2021/08/03 01:27:16;;;;;;;19.17;9.43;;;;;;;24.90;38.43;99634.47;5086505;28;20028;-23
2021/08/03 01:29:42;;;;;;;22.58;9.10;;;;;;;24.29;39.99;99625.56;5086673;28;20059;-23
2021/08/03 01:32:08;;;;;;;19.70;8.95;;;;;;;24.66;39.03;99651.38;5067974;28;20040;-24
2021/08/03 01:34:40;;;;;;;22.73;8.60;;;;;;;24.37;39.50;99632.94;5072056;28;20028;-24
2021/08/03 01:37:06;;;;;;;21.48;9.60;;;;;;;24.41;39.55;99656.50;5090441;28;20031;-23
2021/08/03 01:39:39;;;;;;;18.27;10.43;;;;;;;24.60;39.07;99628.13;5072604;28;20110;-24
2021/08/03 01:42:06;;;;;;;24.55;10.15;;;;;;;24.82;38.89;99632.56;5055642;28;20060;-23
2021/08/03 01:44:32;;;;;;;23.52;9.38;;;;;;;24.98;38.78;99651.94;5072690;28;20032;-23
2021/08/03 01:46:57;;;;;;;24.00;9.63;;;;;;;25.06;39.51;99637.47;5071959;28;20035;-24
2021/08/03 01:49:23;;;;;;;24.73;10.20;;;;;;;24.82;39.69;99648.94;5072191;28;20462;-23
2021/08/03 01:51:48;;;;;;;26.00;10.82;;;;;;;25.10;39.27;99646.63;5072640;28;20028;-23
2021/08/03 01:54:14;;;;;;;22.15;9.85;;;;;;;24.70;40.20;99640.63;5055658;28;20060;-23
2021/08/03 01:56:41;;;;;;;23.92;10.13;;;;;;;25.32;38.63;99633.91;5072396;28;20139;-23
2021/08/03 01:59:07;;;;;;;22.35;9.13;;;;;;;25.66;37.80;99641.91;5072438;28;20036;-23
2021/08/03 02:01:34;;;;;;;19.98;9.40;;;;;;;25.54;37.63;99644.53;5055880;28;20032;-23
2021/08/03 02:04:00;;;;;;;23.50;9.65;;;;;;;25.57;37.53;99630.22;5072003;28;20081;-23
2021/08/03 02:06:25;;;;;;;21.40;9.23;;;;;;;25.70;37.36;99625.63;5055529;28;20020;-24
2021/08/03 02:08:56;;;;;;;23.88;10.10;;;;;;;25.79;37.39;99644.72;5055270;28;20039;-23
2021/08/03 02:11:24;;;;;;;23.80;10.20;;;;;;;25.61;37.20;99649.47;5071932;28;20024;-24
2021/08/03 02:13:49;;;;;;;22.13;9.52;;;;;;;25.40;37.63;99652.94;5072060;28;20510;-23
2021/08/03 02:16:15;;;;;;;22.35;9.30;;;;;;;24.78;38.88;99626.97;5055180;28;20028;-24
2021/08/03 02:18:40;;;;;;;21.65;9.20;;;;;;;24.99;38.37;99653.56;5071677;28;20404;-24
2021/08/03 02:21:06;;;;;;;23.25;9.60;;;;;;;24.67;38.92;99642.06;5089739;28;20475;-23
2021/08/03 02:23:31;;;;;;;22.90;8.85;;;;;;;24.95;38.28;99641.72;5089876;28;20735;-23
2021/08/03 02:25:57;;;;;;;24.38;8.70;;;;;;;25.16;38.06;99626.22;5089627;28;20039;-24
2021/08/03 02:28:22;;;;;;;28.95;8.65;;;;;;;24.92;38.37;99653.25;5089579;28;20051;-24
2021/08/03 02:30:49;;;;;;;26.80;9.55;;;;;;;24.95;38.39;99658.06;5089601;28;20028;-24
2021/08/03 02:33:20;;;;;;;31.85;10.30;;;;;;;24.77;38.74;99652.63;5071641;28;20046;-24
2021/08/03 02:36:05;;;;;;;30.95;9.57;;;;;;;25.08;38.26;99639.88;5071473;28;20508;-24
2021/08/03 02:38:32;;;;;;;27.17;9.80;;;;;;;24.31;40.89;99634.22;5074202;28;20038;-23
2021/08/03 02:40:58;;;;;;;34.00;10.93;;;;;;;23.61;42.42;99655.91;5054532;28;20020;-23
2021/08/03 02:43:25;;;;;;;21.90;9.95;;;;;;;23.67;41.28;99641.81;5071217;28;20506;-23
2021/08/03 02:45:51;;;;;;;24.63;10.43;;;;;;;23.92;40.52;99650.38;5070714;28;20050;-23
2021/08/03 02:48:19;;;;;;;29.50;10.38;;;;;;;23.58;41.88;99668.22;5071209;28;20136;-24
2021/08/03 02:50:45;;;;;;;44.47;12.10;;;;;;;23.95;41.70;99671.53;5071414;28;20067;-23
2021/08/03 02:53:30;;;;;;;23.65;9.93;;;;;;;24.34;40.78;99682.66;5089039;28;20039;-23
2021/08/03 02:56:16;;;;;;;23.42;9.00;;;;;;;24.35;40.02;99690.47;5070838;28;20081;-24
2021/08/03 02:58:47;;;;;;;62.15;11.60;;;;;;;24.64;39.82;99686.31;5088345;28;20040;-23
2021/08/03 03:01:13;;;;;;;23.23;8.70;;;;;;;24.16;40.57;99687.28;5054050;28;20091;-23
2021/08/03 03:03:39;;;;;;;22.98;8.60;;;;;;;24.12;40.60;99691.75;5070839;28;20028;-23
2021/08/03 03:06:06;;;;;;;20.35;8.45;;;;;;;24.41;40.14;99694.66;5054296;28;20130;-24
2021/08/03 03:08:31;;;;;;;23.08;8.38;;;;;;;24.22;40.48;99707.78;5054071;28;20028;-24
2021/08/03 03:10:58;;;;;;;26.60;8.65;;;;;;;24.01;41.57;99691.25;5070917;28;20498;-24
2021/08/03 03:13:29;;;;;;;25.50;8.68;;;;;;;23.79;42.50;99711.22;5070795;28;20031;-24
2021/08/03 03:15:55;;;;;;;17.33;7.88;;;;;;;23.52;44.36;99710.31;5088647;28;20059;-23
2021/08/03 03:18:21;;;;;;;17.48;7.53;;;;;;;23.45;45.37;99723.53;5088762;28;20492;-24
2021/08/03 03:20:46;;;;;;;24.70;9.10;;;;;;;22.95;44.84;99726.44;5070548;28;20043;-24
2021/08/03 03:23:13;;;;;;;58.47;13.50;;;;;;;22.83;44.59;99716.94;5054083;28;20035;-24
2021/08/03 03:25:38;;;;;;;27.08;10.00;;;;;;;23.09;44.68;99732.66;5054007;28;20512;-24
2021/08/03 03:28:05;;;;;;;21.63;8.65;;;;;;;23.26;44.47;99737.38;5087314;28;20061;-24
2021/08/03 03:30:30;;;;;;;26.00;9.10;;;;;;;23.65;43.50;99733.09;5070237;28;20085;-24
2021/08/03 03:33:02;;;;;;;25.08;11.75;;;;;;;23.16;44.08;99724.84;5070333;28;20031;-24
2021/08/03 03:35:28;;;;;;;26.75;12.57;;;;;;;22.92;44.65;99727.06;5055194;28;20035;-24
2021/08/03 03:37:53;;;;;;;24.02;10.77;;;;;;;22.65;45.68;99742.38;5088279;28;20028;-24
2021/08/03 03:40:20;;;;;;;30.58;12.55;;;;;;;22.80;44.81;99731.16;5086999;28;20434;-24
2021/08/03 03:42:46;;;;;;;25.60;10.83;;;;;;;23.13;44.45;99738.25;5070190;28;20032;-23
2021/08/03 03:45:12;;;;;;;26.77;10.45;;;;;;;22.94;46.38;99747.38;5069797;28;20032;-23
2021/08/03 03:47:38;;;;;;;25.98;10.57;;;;;;;23.07;45.14;99740.31;5070128;28;20035;-23
2021/08/03 03:50:23;;;;;;;23.25;10.80;;;;;;;23.58;44.22;99755.31;5070398;28;20039;-24
2021/08/03 03:52:54;;;;;;;34.22;10.73;;;;;;;23.77;44.51;99757.03;5054971;28;20058;-23
2021/08/03 03:55:20;;;;;;;23.48;9.75;;;;;;;23.93;44.60;99743.78;5069704;28;20028;-23
2021/08/03 03:57:45;;;;;;;24.25;9.52;;;;;;;23.99;45.11;99753.44;5087574;28;20054;-24
2021/08/03 04:00:13;;;;;;;25.92;9.48;;;;;;;23.89;45.13;99759.16;5053249;28;20043;-23
2021/08/03 04:02:38;;;;;;;24.33;9.63;;;;;;;24.19;44.81;99750.09;5053219;28;20038;-24
2021/08/03 04:05:04;;;;;;;18.63;8.65;;;;;;;24.35;46.09;99755.09;5052858;28;20036;-24
2021/08/03 04:07:30;;;;;;;21.02;9.75;;;;;;;24.44;47.00;99764.88;5053259;28;20118;-23
2021/08/03 04:10:06;;;;;;;17.40;7.78;;;;;;;24.39;47.07;99754.13;5087989;28;20438;-24
2021/08/03 04:12:31;;;;;;;14.73;6.97;;;;;;;24.69;46.96;99778.88;5087782;28;20165;-23
2021/08/03 04:14:57;;;;;;;17.52;8.00;;;;;;;24.84;47.69;99772.94;5087383;28;20044;-23
2021/08/03 04:17:22;;;;;;;23.25;8.70;;;;;;;24.72;47.81;99786.41;5087610;28;20028;-24
2021/08/03 04:19:48;;;;;;;27.65;10.18;;;;;;;24.12;46.95;99768.03;5087050;28;20036;-24
2021/08/03 04:22:13;;;;;;;23.00;9.07;;;;;;;23.91;48.51;99773.25;5087186;28;20024;-24
2021/08/03 04:24:39;;;;;;;24.33;9.18;;;;;;;23.48;49.84;99782.81;5087514;28;20031;-24
2021/08/03 04:27:04;;;;;;;24.48;10.27;;;;;;;23.50;49.37;99780.56;5087701;28;20748;-24
2021/08/03 04:29:29;;;;;;;25.85;9.95;;;;;;;23.72;48.58;99787.06;5087242;28;20060;-24
2021/08/03 04:31:55;;;;;;;21.92;9.93;;;;;;;23.62;49.16;99783.53;5087459;28;20102;-24
2021/08/03 04:34:20;;;;;;;20.40;9.55;;;;;;;23.84;49.50;99790.88;5087683;28;20039;-23
2021/08/03 04:36:46;;;;;;;16.13;7.22;;;;;;;24.20;49.92;99780.88;5087300;28;20472;-23
2021/08/03 04:39:11;;;;;;;19.63;7.30;;;;;;;25.01;48.74;99798.63;5087108;28;20461;-23
2021/08/03 04:41:38;;;;;;;14.95;6.97;;;;;;;25.50;48.32;99807.41;5085987;28;20032;-24
2021/08/03 04:44:03;;;;;;;19.15;7.80;;;;;;;25.31;48.95;99796.03;5087146;28;20044;-23
2021/08/03 04:46:29;;;;;;;26.55;8.82;;;;;;;25.27;49.04;99804.06;5087231;28;20077;-23
2021/08/03 04:48:54;;;;;;;17.13;7.50;;;;;;;25.55;48.66;99822.81;5087236;28;20082;-23
2021/08/03 04:51:20;;;;;;;20.10;8.05;;;;;;;25.79;48.65;99819.53;5087100;28;20403;-23
2021/08/03 04:53:45;;;;;;;20.23;8.32;;;;;;;26.02;47.45;99815.41;5087480;28;20376;-23
2021/08/03 04:56:11;;;;;;;19.88;8.82;;;;;;;26.00;47.64;99819.63;5086721;28;20028;-23
2021/08/03 04:58:39;;;;;;;17.08;7.25;;;;;;;26.02;48.16;99809.97;5087076;28;20040;-23
2021/08/03 05:01:04;;;;;;;12.05;6.35;;;;;;;26.08;48.38;99820.72;5086744;28;20396;-23
2021/08/03 05:03:30;;;;;;;14.50;6.25;;;;;;;26.22;48.24;99808.41;5087282;28;20032;-24
2021/08/03 05:05:55;;;;;;;12.40;5.85;;;;;;;26.37;47.49;99822.66;5087290;28;20365;-23
2021/08/03 05:08:21;;;;;;;14.55;6.68;;;;;;;26.70;47.56;99830.97;5089363;28;20036;-24
2021/08/03 05:10:46;;;;;;;16.27;6.35;;;;;;;26.79;47.39;99836.41;5091197;28;20028;-23
2021/08/03 05:13:12;;;;;;;13.35;6.32;;;;;;;26.83;47.41;99832.66;5090955;28;20044;-23
2021/08/03 05:15:37;;;;;;;14.13;6.20;;;;;;;26.99;47.27;99832.03;5090784;28;20476;-24
2021/08/03 05:18:03;;;;;;;16.27;6.07;;;;;;;27.22;46.63;99825.06;5072921;28;20100;-24
2021/08/03 05:20:28;;;;;;;14.77;6.15;;;;;;;27.47;45.74;99824.38;5091111;28;20032;-24
2021/08/03 05:22:54;;;;;;;14.07;5.90;;;;;;;27.83;45.50;99835.41;5090909;28;20036;-23
2021/08/03 05:25:19;;;;;;;12.77;5.55;;;;;;;27.59;45.14;99829.91;5090658;28;20089;-23
2021/08/03 05:27:45;;;;;;;13.25;5.28;;;;;;;27.49;44.75;99833.84;5090774;28;20032;-24
2021/08/03 05:30:11;;;;;;;10.43;5.40;;;;;;;27.54;45.20;99844.59;5090964;28;20056;-23
2021/08/03 05:32:36;;;;;;;13.20;5.13;;;;;;;27.51;44.54;99828.84;5091091;28;20131;-23
2021/08/03 05:35:03;;;;;;;16.38;5.47;;;;;;;27.90;44.64;99854.06;5090442;28;20032;-24
2021/08/03 05:37:28;;;;;;;13.27;5.68;;;;;;;28.02;43.90;99851.34;5090940;28;20495;-23
2021/08/03 05:39:55;;;;;;;11.45;4.93;;;;;;;28.24;43.23;99850.09;5090677;28;20036;-28
2021/08/03 05:42:22;;;;;;;11.38;5.13;;;;;;;28.34;42.85;99854.31;5090618;28;20028;-23
2021/08/03 05:44:48;;;;;;;16.77;6.30;;;;;;;28.20;43.04;99854.66;5090330;28;20072;-23
2021/08/03 05:47:15;;;;;;;14.63;6.35;;;;;;;28.24;42.94;99860.25;5090466;28;20135;-23
2021/08/03 05:49:40;;;;;;;13.43;6.72;;;;;;;28.37;43.10;99858.31;5090617;28;20751;-23
2021/08/03 05:52:06;;;;;;;12.57;5.35;;;;;;;28.21;43.09;99860.94;5090222;28;20039;-23
2021/08/03 05:54:32;;;;;;;16.38;5.97;;;;;;;28.39;42.71;99859.56;5090450;28;20040;-24
2021/08/03 05:56:57;;;;;;;12.20;5.82;;;;;;;28.24;43.06;99847.34;5090027;28;20453;-23
2021/08/03 05:59:22;;;;;;;10.50;5.38;;;;;;;28.55;42.53;99864.38;5090057;28;20051;-23
2021/08/03 06:01:48;;;;;;;13.20;6.20;;;;;;;28.71;42.15;99856.22;5090464;28;20038;-23
2021/08/03 06:04:14;;;;;;;14.02;5.28;;;;;;;28.48;41.92;99859.44;5090216;28;20036;-23
2021/08/03 06:06:41;;;;;;;18.27;7.18;;;;;;;28.87;42.18;99870.81;5089958;28;20024;-23
2021/08/03 06:09:10;;;;;;;11.07;5.90;;;;;;;28.90;41.13;99869.34;5090131;28;20051;-23
2021/08/03 06:11:38;;;;;;;13.70;5.35;;;;;;;29.03;41.32;99870.91;5089902;28;20036;-23
2021/08/03 06:14:03;;;;;;;15.43;5.97;;;;;;;28.84;40.97;99861.34;5089846;28;20040;-23
2021/08/03 06:16:28;;;;;;;13.80;6.78;;;;;;;28.68;41.22;99863.22;5071991;28;20055;-23
2021/08/03 06:18:56;;;;;;;11.73;5.97;;;;;;;29.23;41.46;99878.19;5070835;28;20146;-23
2021/08/03 06:21:21;;;;;;;;;;;;;;;29.35;40.57;99871.06;5089784;28;20068;-23
2021/08/03 06:23:48;;;;;;;12.07;6.10;;;;;;;29.42;40.41;99865.72;5089813;28;19943;-23
2021/08/03 06:26:14;;;;;;;13.90;6.30;;;;;;;29.72;40.19;99871.69;5090111;28;20020;-23
2021/08/03 06:28:43;;;;;;;14.75;6.68;;;;;;;29.28;40.83;99859.84;5089280;28;20044;-23
2021/08/03 06:31:09;;;;;;;13.38;5.57;;;;;;;29.64;40.38;99870.66;5055086;28;20083;-23
2021/08/03 06:33:34;;;;;;;12.43;6.22;;;;;;;29.57;39.72;99848.50;5089647;28;20514;-23
2021/08/03 06:36:00;;;;;;;18.83;6.53;;;;;;;29.76;39.80;99861.56;5089470;28;20115;-24
2021/08/03 06:38:25;;;;;;;14.55;6.22;;;;;;;29.95;39.71;99858.13;5090085;28;20100;-24
2021/08/03 06:41:04;;;;;;;14.45;7.25;;;;;;;30.02;38.74;99855.56;5072028;28;20036;-23
2021/08/03 06:43:31;;;;;;;18.55;7.32;;;;;;;30.14;39.06;99860.16;5071317;28;20124;-23
2021/08/03 06:46:06;;;;;;;15.27;7.15;;;;;;;30.36;38.78;99878.00;5089524;28;20042;-23
2021/08/03 06:48:40;;;;;;;17.30;6.93;;;;;;;30.43;38.55;99882.88;5089155;28;20103;-23
2021/08/03 06:51:10;;;;;;;11.60;5.90;;;;;;;30.26;38.98;99884.03;5088992;28;20028;-23
2021/08/03 06:53:37;;;;;;;14.32;5.70;;;;;;;30.16;38.25;99873.53;5071046;28;20123;-23
2021/08/03 06:56:03;;;;;;;12.85;6.10;;;;;;;30.32;38.85;99882.63;5089017;28;20078;-23
2021/08/03 06:58:30;;;;;;;9.50;5.03;;;;;;;30.25;38.13;99877.72;5088958;28;20111;-23
2021/08/03 07:00:57;;;;;;;13.32;6.70;;;;;;;30.23;37.49;99879.22;5089048;28;20056;-24
2021/08/03 07:03:24;;;;;;;10.45;5.32;;;;;;;30.20;37.87;99874.47;5088999;28;20028;-23
2021/08/03 07:05:53;;;;;;;17.30;5.67;;;;;;;30.74;37.60;99871.00;5070942;28;20843;-23
2021/08/03 07:08:19;;;;;;;12.35;5.50;;;;;;;31.07;36.76;99868.94;5088774;28;20047;-23
2021/08/03 07:10:45;;;;;;;14.35;6.32;;;;;;;30.92;35.68;99881.63;5089244;28;20032;-23
2021/08/03 07:13:12;;;;;;;16.83;6.05;;;;;;;30.92;35.45;99865.13;5070448;28;20408;-24
2021/08/03 07:15:37;;;;;;;16.35;6.40;;;;;;;31.02;36.75;99881.84;5088517;28;20024;-23
2021/08/03 07:18:03;;;;;;;11.73;5.85;;;;;;;31.07;35.93;99871.72;5070716;28;20036;-24
2021/08/03 07:20:28;;;;;;;10.52;5.53;;;;;;;31.38;35.77;99882.56;5088480;28;20028;-24
2021/08/03 07:22:54;;;;;;;13.20;5.95;;;;;;;31.83;35.15;99881.06;5070420;28;20042;-23
2021/08/03 07:25:19;;;;;;;11.63;5.18;;;;;;;31.56;35.00;99884.91;5070436;28;20768;-23
2021/08/03 07:27:51;;;;;;;11.73;5.32;;;;;;;31.91;35.18;99878.41;5088783;28;20040;-23
2021/08/03 07:30:16;;;;;;;17.40;6.22;;;;;;;32.18;33.67;99890.31;5088024;28;20117;-23
2021/08/03 07:32:42;;;;;;;15.07;5.97;;;;;;;32.40;33.63;99864.66;5088346;28;20491;-23
2021/08/03 07:35:08;;;;;;;13.05;5.57;;;;;;;32.33;33.73;99883.88;5070286;28;20498;-23
2021/08/03 07:37:34;;;;;;;11.52;5.18;;;;;;;32.26;33.83;99881.00;5088463;28;20150;-23
2021/08/03 07:40:01;;;;;;;15.20;5.78;;;;;;;31.99;33.84;99878.19;5088482;28;20048;-23
2021/08/03 07:42:27;;;;;;;12.55;5.45;;;;;;;32.01;34.16;99867.59;5070274;28;20059;-23
2021/08/03 07:44:52;;;;;;;15.05;5.25;;;;;;;32.43;33.89;99874.97;5070205;28;20380;-23
2021/08/03 07:47:18;;;;;;;15.30;5.43;;;;;;;32.36;33.30;99883.13;5088268;28;20040;-23
2021/08/03 07:49:45;;;;;;;12.20;4.93;;;;;;;32.48;33.50;99887.63;5070220;28;20032;-23
2021/08/03 07:52:11;;;;;;;11.90;5.60;;;;;;;32.46;33.13;99883.66;5088155;28;20036;-23
2021/08/03 07:54:36;;;;;;;11.98;5.60;;;;;;;32.49;33.11;99893.94;5088065;28;20045;-23
2021/08/03 07:57:02;;;;;;;11.82;5.57;;;;;;;32.35;33.80;99889.03;5087463;28;20024;-23
2021/08/03 07:59:27;;;;;;;11.50;5.43;;;;;;;32.80;32.89;99888.13;5087909;28;20864;-23
2021/08/03 08:01:53;;;;;;;12.63;5.63;;;;;;;33.02;32.62;99893.94;5087894;28;20027;-23
2021/08/03 08:04:18;;;;;;;12.40;5.68;;;;;;;33.02;30.69;99888.41;5087749;28;20529;-23
2021/08/03 08:06:44;;;;;;;12.32;5.50;;;;;;;33.05;30.92;99876.59;5087971;28;20024;-23
2021/08/03 08:09:09;;;;;;;11.82;5.30;;;;;;;33.26;30.52;99880.81;5087446;28;20082;-23
2021/08/03 08:11:35;;;;;;;10.00;5.20;;;;;;;33.12;30.71;99879.50;5087822;28;20023;-23
2021/08/03 08:14:00;;;;;;;13.20;6.10;;;;;;;33.27;30.15;99887.94;5087726;28;20117;-23
2021/08/03 08:16:26;;;;;;;10.40;5.47;;;;;;;33.42;30.43;99875.88;5087764;28;20024;-23
2021/08/03 08:18:51;;;;;;;11.38;5.35;;;;;;;33.36;30.17;99885.66;5087747;28;20085;-23
2021/08/03 08:21:17;;;;;;;12.60;5.70;;;;;;;33.44;30.51;99895.63;5087494;28;20424;-23
2021/08/03 08:23:42;;;;;;;17.30;7.10;;;;;;;33.86;29.28;99891.75;5087223;28;20036;-23
2021/08/03 08:26:08;;;;;;;15.00;5.55;;;;;;;33.75;28.38;99893.59;5087534;28;20172;-23
2021/08/03 08:28:33;;;;;;;12.80;5.47;;;;;;;33.86;30.15;99890.94;5087439;28;20883;-23
2021/08/03 08:30:59;;;;;;;16.67;5.80;;;;;;;33.56;29.93;99881.53;5087312;28;20047;-23
2021/08/03 08:33:24;;;;;;;12.45;5.63;;;;;;;33.87;30.61;99885.03;5087511;28;20479;-23
2021/08/03 08:35:50;;;;;;;12.30;5.65;;;;;;;34.39;28.94;99883.09;5087454;28;20028;-23
2021/08/03 08:38:15;;;;;;;12.55;5.15;;;;;;;34.34;29.00;99889.00;5087206;28;20450;-23
2021/08/03 08:40:41;;;;;;;10.90;5.18;;;;;;;34.25;28.57;99883.00;5087237;28;20028;-24
2021/08/03 08:43:07;;;;;;;10.02;4.88;;;;;;;34.05;29.90;99889.94;5086648;28;20389;-23
2021/08/03 08:45:32;;;;;;;10.30;4.43;;;;;;;34.13;30.87;99880.50;5086922;28;20050;-23
2021/08/03 08:47:57;;;;;;;14.13;5.60;;;;;;;34.42;30.56;99887.06;5069131;28;20535;-23
2021/08/03 08:50:25;;;;;;;10.75;5.05;;;;;;;34.36;29.80;99881.09;5069090;28;20024;-23
2021/08/03 08:52:53;;;;;;;;;;;;;;;34.36;29.85;99892.16;5087574;28;20040;-23
2021/08/03 08:55:18;;;;;;;9.75;4.97;;;;;;;33.98;30.07;99880.41;5086707;28;19916;-23
2021/08/03 08:57:47;;;;;;;10.27;5.40;;;;;;;34.52;29.84;99880.03;5069548;28;20035;-23
2021/08/03 09:00:13;;;;;;;13.48;5.60;;;;;;;34.60;29.66;99878.88;5087129;28;20058;-23
2021/08/03 09:02:42;;;;;;;9.27;5.70;;;;;;;34.46;30.41;99878.78;5086937;28;20484;-23
2021/08/03 09:05:08;;;;;;;11.38;5.05;;;;;;;34.77;28.68;99877.41;5086937;28;20034;-23
2021/08/03 09:07:50;;;;;;;16.88;5.38;;;;;;;34.75;27.28;99877.78;5087454;28;20055;-23
2021/08/03 09:10:38;;;;;;;13.48;5.60;;;;;;;34.62;28.89;99873.75;5087232;28;20039;-23
2021/08/03 09:13:23;;;;;;;10.27;4.88;;;;;;;34.83;28.02;99880.63;5086637;28;20024;-23
2021/08/03 09:16:00;;;;;;;12.70;4.97;;;;;;;35.05;26.23;99864.88;5086151;28;20090;-23
2021/08/03 09:18:30;;;;;;;8.00;4.40;;;;;;;34.87;27.92;99871.13;5087085;28;20047;-23
2021/08/03 09:20:55;;;;;;;14.40;5.88;;;;;;;35.26;27.11;99853.09;5087154;28;20042;-23
2021/08/03 09:23:50;;;;;;;12.40;5.18;;;;;;;35.59;26.37;99850.00;5086836;28;20036;-23
2021/08/03 09:26:15;;;;;;;12.43;4.30;;;;;;;35.92;26.31;99867.47;5086749;28;20032;-23
2021/08/03 09:29:00;;;;;;;10.25;4.85;;;;;;;35.61;26.07;99864.25;5086652;28;20060;-23
2021/08/03 09:31:27;;;;;;;10.88;4.70;;;;;;;35.70;24.22;99852.81;5068895;28;20550;-23
2021/08/03 09:33:52;;;;;;;10.55;4.60;;;;;;;35.71;24.50;99857.16;5086829;28;20030;-23
2021/08/03 09:36:39;;;;;;;9.68;4.43;;;;;;;35.55;24.26;99846.44;5086855;28;20032;-23
2021/08/03 09:39:04;;;;;;;9.68;4.25;;;;;;;36.26;23.27;99855.97;5071369;28;20027;-23
2021/08/03 09:41:30;;;;;;;8.05;4.97;;;;;;;36.28;21.30;99853.59;5068937;28;20032;-23
2021/08/03 09:43:55;;;;;;;11.55;4.93;;;;;;;36.58;21.95;99852.34;5052120;28;20051;-23
2021/08/03 09:46:21;;;;;;;7.70;4.00;;;;;;;36.48;21.10;99859.50;5086845;28;20031;-23
2021/08/03 09:48:47;;;;;;;10.48;4.20;;;;;;;36.30;22.12;99853.19;5086781;28;20054;-23
2021/08/03 09:51:12;;;;;;;7.72;4.10;;;;;;;36.38;21.98;99844.44;5086399;28;20036;-23
2021/08/03 09:53:51;;;;;;;9.55;4.50;;;;;;;36.49;22.80;99854.72;5088024;28;20496;-23
2021/08/03 09:56:20;;;;;;;8.52;4.22;;;;;;;36.35;22.50;99845.25;5072671;28;20487;-23
2021/08/03 09:58:54;;;;;;;12.73;4.35;;;;;;;36.56;22.57;99851.94;5090099;28;20028;-23
2021/08/03 10:01:24;;;;;;;10.30;4.50;;;;;;;36.76;22.69;99844.78;5072967;28;20031;-23
2021/08/03 10:03:53;;;;;;;9.95;4.28;;;;;;;36.80;21.78;99848.31;5090105;28;20033;-23
2021/08/03 10:06:19;;;;;;;11.07;4.43;;;;;;;36.68;22.89;99826.53;5090306;28;20092;-23
2021/08/03 10:08:49;;;;;;;7.95;4.32;;;;;;;36.98;23.44;99819.66;5090188;28;20032;-23
2021/08/03 10:11:15;;;;;;;11.27;4.50;;;;;;;36.82;21.60;99828.47;5089907;28;20452;-23
2021/08/03 10:13:42;;;;;;;8.30;4.47;;;;;;;37.05;23.87;99816.06;5089891;28;20517;-23
2021/08/03 10:16:08;;;;;;;10.45;4.40;;;;;;;37.18;22.13;99829.09;5089912;28;20028;-23
2021/08/03 10:18:33;;;;;;;9.73;4.70;;;;;;;37.41;22.56;99824.97;5090650;28;20038;-23
2021/08/03 10:20:59;;;;;;;8.35;4.25;;;;;;;37.50;23.33;99828.09;5054912;28;20050;-23
2021/08/03 10:23:24;;;;;;;10.02;4.30;;;;;;;37.47;21.13;99828.13;5071983;28;20085;-23
2021/08/03 10:25:50;;;;;;;9.15;4.35;;;;;;;37.61;20.67;99813.34;5072004;28;20036;-23
2021/08/03 10:28:25;;;;;;;8.68;4.10;;;;;;;37.95;19.81;99822.59;5054679;28;20166;-23
2021/08/03 10:30:51;;;;;;;10.52;4.07;;;;;;;38.45;19.74;99817.75;5071333;28;20028;-23
2021/08/03 10:33:47;;;;;;;7.63;4.18;;;;;;;38.88;20.37;99806.09;5054755;28;20047;-23
2021/08/03 10:36:36;;;;;;;7.73;4.50;;;;;;;39.05;18.50;99821.81;5072060;28;20052;-23
2021/08/03 10:39:12;;;;;;;7.70;4.18;;;;;;;38.90;19.15;99803.66;5089522;28;20066;-23
2021/08/03 10:42:04;;;;;;;9.43;4.00;;;;;;;38.79;18.49;99803.81;5089523;28;20032;-23
2021/08/03 10:44:44;;;;;;;8.02;3.97;;;;;;;39.31;19.35;99805.50;5080142;28;20044;-23
2021/08/03 10:47:32;;;;;;;8.40;3.83;;;;;;;39.59;18.13;99798.72;5089329;28;20032;-23
2021/08/03 10:50:11;;;;;;;8.82;4.30;;;;;;;39.90;18.10;99785.44;5089299;28;20039;-23
2021/08/03 10:52:48;;;;;;;8.57;3.92;;;;;;;39.83;17.23;99790.34;5089197;28;20050;-23
2021/08/03 10:55:43;;;;;;;10.13;3.85;;;;;;;39.68;16.87;99795.38;5089274;28;20035;-23
2021/08/03 10:58:08;;;;;;;7.70;3.53;;;;;;;39.50;17.11;99787.31;5088960;28;20036;-23
2021/08/03 11:00:49;;;;;;;8.57;4.23;;;;;;;39.65;17.07;99788.63;5089148;28;20089;-23
2021/08/03 11:03:35;;;;;;;9.02;4.28;;;;;;;39.52;15.55;99794.03;5088953;28;20048;-23
2021/08/03 11:06:03;;;;;;;10.50;3.75;;;;;;;39.77;15.47;99793.63;5088591;28;20110;-23
2021/08/03 11:08:43;;;;;;;7.75;3.35;;;;;;;40.01;16.00;99787.25;5088717;28;20023;-23
2021/08/03 11:11:11;;;;;;;6.35;3.58;;;;;;;40.15;14.91;99784.19;5088657;28;20124;-23
2021/08/03 11:13:49;;;;;;;8.15;3.83;;;;;;;40.49;14.97;99791.53;5088852;28;20093;-23
2021/08/03 11:16:21;;;;;;;7.90;3.80;;;;;;;40.22;13.40;99798.03;5088871;28;20035;-23
2021/08/03 11:18:57;;;;;;;11.23;5.28;;;;;;;40.40;14.24;99780.13;5089152;28;20039;-23
2021/08/03 11:21:26;;;;;;;8.73;3.35;;;;;;;39.78;13.28;99783.22;5070559;28;20100;-23
2021/08/03 11:24:11;;;;;;;9.20;3.25;;;;;;;39.87;13.74;99786.31;5088585;28;20089;-23
2021/08/03 11:26:39;;;;;;;8.32;3.42;;;;;;;39.71;13.39;99773.00;5088376;28;20047;-22
2021/08/03 11:29:06;;;;;;;9.07;3.47;;;;;;;40.18;12.31;99772.16;5069915;28;20055;-23
2021/08/03 11:31:48;;;;;;;7.78;3.40;;;;;;;40.34;12.88;99763.09;5088449;28;20036;-23
2021/08/03 11:34:16;;;;;;;9.65;4.22;;;;;;;40.43;12.53;99770.91;5088443;28;20032;-23